sensor_id;sensor_type;location;lat;lon;timestamp;P1;durP1;ratioP1;P2;durP2;ratioP2
12024;SDS011;6073;53.230;10.444;2022-08-21T00:01:41;3.78;;;2.50;;
12024;SDS011;6073;53.230;10.444;2022-08-21T00:04:07;4.13;;;2.40;;
12024;SDS011;6073;53.230;10.444;2022-08-21T00:06:33;4.97;;;2.55;;
12024;SDS011;6073;53.230;10.444;2022-08-21T00:09:00;5.30;;;2.90;;
12024;SDS011;6073;53.230;10.444;2022-08-21T00:11:26;3.80;;;2.30;;
12024;SDS011;6073;53.230;10.444;2022-08-21T00:13:52;5.82;;;2.60;;
12024;SDS011;6073;53.230;10.444;2022-08-21T00:16:18;2.83;;;2.30;;
12024;SDS011;6073;53.230;10.444;2022-08-21T00:18:44;3.55;;;2.50;;
12024;SDS011;6073;53.230;10.444;2022-08-21T00:21:11;3.55;;;2.60;;
12024;SDS011;6073;53.230;10.444;2022-08-21T00:23:37;5.38;;;2.63;;
12024;SDS011;6073;53.230;10.444;2022-08-21T00:26:03;3.38;;;2.47;;
12024;SDS011;6073;53.230;10.444;2022-08-21T00:28:29;3.83;;;2.30;;
12024;SDS011;6073;53.230;10.444;2022-08-21T00:30:55;4.90;;;2.53;;
12024;SDS011;6073;53.230;10.444;2022-08-21T00:33:21;5.70;;;2.65;;
12024;SDS011;6073;53.230;10.444;2022-08-21T00:35:47;3.72;;;2.45;;
12024;SDS011;6073;53.230;10.444;2022-08-21T00:38:13;4.13;;;2.75;;
12024;SDS011;6073;53.230;10.444;2022-08-21T00:43:13;4.15;;;2.70;;
12024;SDS011;6073;53.230;10.444;2022-08-21T00:45:41;4.65;;;2.70;;
12024;SDS011;6073;53.230;10.444;2022-08-21T00:48:07;4.35;;;2.60;;
12024;SDS011;6073;53.230;10.444;2022-08-21T00:50:35;2.97;;;2.60;;
12024;SDS011;6073;53.230;10.444;2022-08-21T00:53:05;4.63;;;2.72;;
12024;SDS011;6073;53.230;10.444;2022-08-21T00:55:32;5.60;;;2.80;;
12024;SDS011;6073;53.230;10.444;2022-08-21T00:57:59;4.03;;;2.80;;
12024;SDS011;6073;53.230;10.444;2022-08-21T01:00:28;4.00;;;2.40;;
12024;SDS011;6073;53.230;10.444;2022-08-21T01:02:56;4.13;;;2.88;;
12024;SDS011;6073;53.230;10.444;2022-08-21T01:05:22;5.50;;;3.05;;
12024;SDS011;6073;53.230;10.444;2022-08-21T01:07:48;4.22;;;2.67;;
12024;SDS011;6073;53.230;10.444;2022-08-21T01:10:14;6.30;;;3.25;;
12024;SDS011;6073;53.230;10.444;2022-08-21T01:12:40;4.40;;;2.63;;
12024;SDS011;6073;53.230;10.444;2022-08-21T01:15:07;5.57;;;2.70;;
12024;SDS011;6073;53.230;10.444;2022-08-21T01:17:36;6.18;;;3.00;;
12024;SDS011;6073;53.230;10.444;2022-08-21T01:20:04;4.22;;;2.80;;
12024;SDS011;6073;53.230;10.444;2022-08-21T01:22:31;5.15;;;2.70;;
12024;SDS011;6073;53.230;10.444;2022-08-21T01:24:57;5.50;;;2.75;;
12024;SDS011;6073;53.230;10.444;2022-08-21T01:27:22;4.93;;;3.03;;
12024;SDS011;6073;53.230;10.444;2022-08-21T01:29:52;3.10;;;2.60;;
12024;SDS011;6073;53.230;10.444;2022-08-21T01:32:22;4.45;;;2.90;;
12024;SDS011;6073;53.230;10.444;2022-08-21T01:34:48;4.40;;;2.72;;
12024;SDS011;6073;53.230;10.444;2022-08-21T01:37:15;3.85;;;2.63;;
12024;SDS011;6073;53.230;10.444;2022-08-21T01:39:42;4.55;;;2.95;;
12024;SDS011;6073;53.230;10.444;2022-08-21T01:42:08;4.45;;;2.63;;
12024;SDS011;6073;53.230;10.444;2022-08-21T01:44:34;6.10;;;3.17;;
12024;SDS011;6073;53.230;10.444;2022-08-21T01:47:01;4.50;;;2.80;;
12024;SDS011;6073;53.230;10.444;2022-08-21T01:49:28;4.32;;;2.75;;
12024;SDS011;6073;53.230;10.444;2022-08-21T01:51:54;7.75;;;2.80;;
12024;SDS011;6073;53.230;10.444;2022-08-21T01:54:19;3.50;;;2.70;;
12024;SDS011;6073;53.230;10.444;2022-08-21T01:56:46;4.32;;;2.70;;
12024;SDS011;6073;53.230;10.444;2022-08-21T01:59:16;4.60;;;3.10;;
12024;SDS011;6073;53.230;10.444;2022-08-21T02:01:42;3.45;;;2.70;;
12024;SDS011;6073;53.230;10.444;2022-08-21T02:04:08;4.70;;;2.90;;
12024;SDS011;6073;53.230;10.444;2022-08-21T02:06:34;5.00;;;3.00;;
12024;SDS011;6073;53.230;10.444;2022-08-21T02:09:00;4.88;;;2.88;;
12024;SDS011;6073;53.230;10.444;2022-08-21T02:11:28;3.25;;;2.72;;
12024;SDS011;6073;53.230;10.444;2022-08-21T02:13:54;4.35;;;2.90;;
12024;SDS011;6073;53.230;10.444;2022-08-21T02:16:19;3.72;;;2.90;;
12024;SDS011;6073;53.230;10.444;2022-08-21T02:18:45;4.68;;;2.83;;
12024;SDS011;6073;53.230;10.444;2022-08-21T02:21:11;3.47;;;3.00;;
12024;SDS011;6073;53.230;10.444;2022-08-21T02:23:36;3.33;;;2.90;;
12024;SDS011;6073;53.230;10.444;2022-08-21T02:26:03;4.82;;;2.78;;
12024;SDS011;6073;53.230;10.444;2022-08-21T02:28:31;4.75;;;3.00;;
12024;SDS011;6073;53.230;10.444;2022-08-21T02:30:57;4.75;;;3.00;;
12024;SDS011;6073;53.230;10.444;2022-08-21T02:33:23;3.58;;;2.63;;
12024;SDS011;6073;53.230;10.444;2022-08-21T02:35:50;5.72;;;3.00;;
12024;SDS011;6073;53.230;10.444;2022-08-21T02:38:19;3.67;;;2.90;;
12024;SDS011;6073;53.230;10.444;2022-08-21T02:40:47;4.28;;;2.58;;
12024;SDS011;6073;53.230;10.444;2022-08-21T02:43:15;4.22;;;2.75;;
12024;SDS011;6073;53.230;10.444;2022-08-21T02:45:42;5.30;;;3.08;;
12024;SDS011;6073;53.230;10.444;2022-08-21T02:48:09;3.58;;;2.80;;
12024;SDS011;6073;53.230;10.444;2022-08-21T02:50:42;3.03;;;2.70;;
12024;SDS011;6073;53.230;10.444;2022-08-21T02:53:10;4.25;;;2.80;;
12024;SDS011;6073;53.230;10.444;2022-08-21T02:55:38;3.47;;;2.85;;
12024;SDS011;6073;53.230;10.444;2022-08-21T02:58:06;3.00;;;2.47;;
12024;SDS011;6073;53.230;10.444;2022-08-21T03:00:32;4.88;;;3.30;;
12024;SDS011;6073;53.230;10.444;2022-08-21T03:02:59;3.00;;;2.60;;
12024;SDS011;6073;53.230;10.444;2022-08-21T03:05:25;4.97;;;3.13;;
12024;SDS011;6073;53.230;10.444;2022-08-21T03:07:53;2.80;;;2.60;;
12024;SDS011;6073;53.230;10.444;2022-08-21T03:10:19;3.88;;;2.90;;
12024;SDS011;6073;53.230;10.444;2022-08-21T03:12:46;4.22;;;2.83;;
12024;SDS011;6073;53.230;10.444;2022-08-21T03:15:13;3.70;;;2.90;;
12024;SDS011;6073;53.230;10.444;2022-08-21T03:17:42;4.35;;;2.95;;
12024;SDS011;6073;53.230;10.444;2022-08-21T03:20:08;4.13;;;2.80;;
12024;SDS011;6073;53.230;10.444;2022-08-21T03:22:34;4.25;;;2.75;;
12024;SDS011;6073;53.230;10.444;2022-08-21T03:25:00;3.35;;;2.85;;
12024;SDS011;6073;53.230;10.444;2022-08-21T03:27:27;4.10;;;2.85;;
12024;SDS011;6073;53.230;10.444;2022-08-21T03:29:53;2.80;;;2.55;;
12024;SDS011;6073;53.230;10.444;2022-08-21T03:32:19;3.42;;;2.70;;
12024;SDS011;6073;53.230;10.444;2022-08-21T03:34:46;4.25;;;3.20;;
12024;SDS011;6073;53.230;10.444;2022-08-21T03:37:12;2.92;;;2.67;;
12024;SDS011;6073;53.230;10.444;2022-08-21T03:39:38;4.32;;;2.60;;
12024;SDS011;6073;53.230;10.444;2022-08-21T03:42:04;4.00;;;3.17;;
12024;SDS011;6073;53.230;10.444;2022-08-21T03:44:31;3.55;;;2.95;;
12024;SDS011;6073;53.230;10.444;2022-08-21T03:46:56;4.03;;;3.20;;
12024;SDS011;6073;53.230;10.444;2022-08-21T03:49:23;4.10;;;2.60;;
12024;SDS011;6073;53.230;10.444;2022-08-21T03:51:49;3.20;;;2.90;;
12024;SDS011;6073;53.230;10.444;2022-08-21T03:54:15;3.13;;;2.83;;
12024;SDS011;6073;53.230;10.444;2022-08-21T03:56:41;5.00;;;3.10;;
12024;SDS011;6073;53.230;10.444;2022-08-21T03:59:07;6.20;;;2.83;;
12024;SDS011;6073;53.230;10.444;2022-08-21T04:01:33;4.22;;;2.80;;
12024;SDS011;6073;53.230;10.444;2022-08-21T04:03:58;3.60;;;3.10;;
12024;SDS011;6073;53.230;10.444;2022-08-21T04:06:24;3.10;;;2.80;;
12024;SDS011;6073;53.230;10.444;2022-08-21T04:08:51;3.30;;;2.55;;
12024;SDS011;6073;53.230;10.444;2022-08-21T04:11:17;4.13;;;2.90;;
12024;SDS011;6073;53.230;10.444;2022-08-21T04:13:43;4.95;;;3.15;;
12024;SDS011;6073;53.230;10.444;2022-08-21T04:16:09;5.75;;;3.40;;
12024;SDS011;6073;53.230;10.444;2022-08-21T04:18:35;3.45;;;3.10;;
12024;SDS011;6073;53.230;10.444;2022-08-21T04:21:01;3.92;;;2.80;;
12024;SDS011;6073;53.230;10.444;2022-08-21T04:23:28;3.65;;;2.92;;
12024;SDS011;6073;53.230;10.444;2022-08-21T04:25:54;4.15;;;3.10;;
12024;SDS011;6073;53.230;10.444;2022-08-21T04:28:24;3.95;;;2.90;;
12024;SDS011;6073;53.230;10.444;2022-08-21T04:30:52;3.47;;;2.80;;
12024;SDS011;6073;53.230;10.444;2022-08-21T04:33:18;5.70;;;2.90;;
12024;SDS011;6073;53.230;10.444;2022-08-21T04:35:45;3.78;;;3.13;;
12024;SDS011;6073;53.230;10.444;2022-08-21T04:38:10;3.30;;;3.00;;
12024;SDS011;6073;53.230;10.444;2022-08-21T04:40:36;3.45;;;2.78;;
12024;SDS011;6073;53.230;10.444;2022-08-21T04:43:07;3.63;;;2.85;;
12024;SDS011;6073;53.230;10.444;2022-08-21T04:45:36;5.85;;;3.00;;
12024;SDS011;6073;53.230;10.444;2022-08-21T04:48:07;5.15;;;3.00;;
12024;SDS011;6073;53.230;10.444;2022-08-21T04:50:42;3.47;;;3.17;;
12024;SDS011;6073;53.230;10.444;2022-08-21T04:53:09;4.40;;;2.78;;
12024;SDS011;6073;53.230;10.444;2022-08-21T04:55:38;4.43;;;2.80;;
12024;SDS011;6073;53.230;10.444;2022-08-21T04:58:06;3.60;;;2.70;;
12024;SDS011;6073;53.230;10.444;2022-08-21T05:00:34;3.08;;;2.47;;
12024;SDS011;6073;53.230;10.444;2022-08-21T05:02:59;4.93;;;2.90;;
12024;SDS011;6073;53.230;10.444;2022-08-21T05:05:28;6.50;;;3.00;;
12024;SDS011;6073;53.230;10.444;2022-08-21T05:07:54;2.90;;;2.50;;
12024;SDS011;6073;53.230;10.444;2022-08-21T05:10:21;3.83;;;3.00;;
12024;SDS011;6073;53.230;10.444;2022-08-21T05:12:47;3.10;;;2.80;;
12024;SDS011;6073;53.230;10.444;2022-08-21T05:15:14;4.35;;;3.00;;
12024;SDS011;6073;53.230;10.444;2022-08-21T05:17:40;4.97;;;2.65;;
12024;SDS011;6073;53.230;10.444;2022-08-21T05:20:06;4.28;;;2.80;;
12024;SDS011;6073;53.230;10.444;2022-08-21T05:22:33;3.47;;;2.70;;
12024;SDS011;6073;53.230;10.444;2022-08-21T05:24:59;4.00;;;2.30;;
12024;SDS011;6073;53.230;10.444;2022-08-21T05:27:24;4.18;;;2.40;;
12024;SDS011;6073;53.230;10.444;2022-08-21T05:29:50;5.10;;;2.40;;
12024;SDS011;6073;53.230;10.444;2022-08-21T05:32:15;4.10;;;2.78;;
12024;SDS011;6073;53.230;10.444;2022-08-21T05:34:41;3.47;;;2.38;;
12024;SDS011;6073;53.230;10.444;2022-08-21T05:37:07;2.70;;;2.30;;
12024;SDS011;6073;53.230;10.444;2022-08-21T05:39:36;4.55;;;1.90;;
12024;SDS011;6073;53.230;10.444;2022-08-21T05:42:01;3.45;;;2.30;;
12024;SDS011;6073;53.230;10.444;2022-08-21T05:44:27;4.00;;;2.30;;
12024;SDS011;6073;53.230;10.444;2022-08-21T05:46:52;3.47;;;2.38;;
12024;SDS011;6073;53.230;10.444;2022-08-21T05:49:18;3.75;;;2.30;;
12024;SDS011;6073;53.230;10.444;2022-08-21T05:51:43;3.95;;;2.20;;
12024;SDS011;6073;53.230;10.444;2022-08-21T05:54:09;5.93;;;2.75;;
12024;SDS011;6073;53.230;10.444;2022-08-21T05:56:35;4.40;;;2.30;;
12024;SDS011;6073;53.230;10.444;2022-08-21T05:59:01;6.45;;;2.70;;
12024;SDS011;6073;53.230;10.444;2022-08-21T06:01:27;3.92;;;2.50;;
12024;SDS011;6073;53.230;10.444;2022-08-21T06:03:52;2.60;;;2.28;;
12024;SDS011;6073;53.230;10.444;2022-08-21T06:06:18;3.03;;;2.63;;
12024;SDS011;6073;53.230;10.444;2022-08-21T06:08:43;4.07;;;2.45;;
12024;SDS011;6073;53.230;10.444;2022-08-21T06:11:09;3.40;;;2.47;;
12024;SDS011;6073;53.230;10.444;2022-08-21T06:13:35;3.80;;;2.38;;
12024;SDS011;6073;53.230;10.444;2022-08-21T06:18:36;3.38;;;2.42;;
12024;SDS011;6073;53.230;10.444;2022-08-21T06:21:03;4.07;;;2.40;;
12024;SDS011;6073;53.230;10.444;2022-08-21T06:23:29;3.53;;;2.35;;
12024;SDS011;6073;53.230;10.444;2022-08-21T06:25:55;3.72;;;2.28;;
12024;SDS011;6073;53.230;10.444;2022-08-21T06:28:21;2.78;;;2.10;;
12024;SDS011;6073;53.230;10.444;2022-08-21T06:30:47;3.03;;;2.10;;
12024;SDS011;6073;53.230;10.444;2022-08-21T06:33:13;3.47;;;1.67;;
12024;SDS011;6073;53.230;10.444;2022-08-21T06:35:38;3.05;;;2.17;;
12024;SDS011;6073;53.230;10.444;2022-08-21T06:38:04;3.38;;;2.10;;
12024;SDS011;6073;53.230;10.444;2022-08-21T06:40:30;3.00;;;1.92;;
12024;SDS011;6073;53.230;10.444;2022-08-21T06:42:56;2.92;;;1.98;;
12024;SDS011;6073;53.230;10.444;2022-08-21T06:45:23;4.28;;;2.33;;
12024;SDS011;6073;53.230;10.444;2022-08-21T06:47:49;5.05;;;1.88;;
12024;SDS011;6073;53.230;10.444;2022-08-21T06:50:14;4.78;;;1.90;;
12024;SDS011;6073;53.230;10.444;2022-08-21T06:52:40;3.67;;;1.88;;
12024;SDS011;6073;53.230;10.444;2022-08-21T06:55:07;3.95;;;2.00;;
12024;SDS011;6073;53.230;10.444;2022-08-21T06:57:34;4.97;;;1.95;;
12024;SDS011;6073;53.230;10.444;2022-08-21T07:00:00;2.58;;;2.00;;
12024;SDS011;6073;53.230;10.444;2022-08-21T07:02:26;3.15;;;2.00;;
12024;SDS011;6073;53.230;10.444;2022-08-21T07:04:51;5.68;;;1.92;;
12024;SDS011;6073;53.230;10.444;2022-08-21T07:07:17;2.75;;;1.95;;
12024;SDS011;6073;53.230;10.444;2022-08-21T07:09:42;2.78;;;1.95;;
12024;SDS011;6073;53.230;10.444;2022-08-21T07:12:08;3.67;;;1.90;;
12024;SDS011;6073;53.230;10.444;2022-08-21T07:14:35;4.15;;;2.00;;
12024;SDS011;6073;53.230;10.444;2022-08-21T07:17:01;5.20;;;2.08;;
12024;SDS011;6073;53.230;10.444;2022-08-21T07:19:26;3.33;;;1.77;;
12024;SDS011;6073;53.230;10.444;2022-08-21T07:21:53;3.60;;;1.95;;
12024;SDS011;6073;53.230;10.444;2022-08-21T07:24:22;5.45;;;1.88;;
12024;SDS011;6073;53.230;10.444;2022-08-21T07:26:48;3.38;;;1.70;;
12024;SDS011;6073;53.230;10.444;2022-08-21T07:29:13;4.22;;;1.80;;
12024;SDS011;6073;53.230;10.444;2022-08-21T07:31:39;3.40;;;1.70;;
12024;SDS011;6073;53.230;10.444;2022-08-21T07:34:05;2.38;;;1.63;;
12024;SDS011;6073;53.230;10.444;2022-08-21T07:36:30;3.40;;;1.65;;
12024;SDS011;6073;53.230;10.444;2022-08-21T07:38:56;1.50;;;1.40;;
12024;SDS011;6073;53.230;10.444;2022-08-21T07:41:22;4.07;;;1.55;;
12024;SDS011;6073;53.230;10.444;2022-08-21T07:43:50;2.25;;;1.63;;
12024;SDS011;6073;53.230;10.444;2022-08-21T07:46:16;2.13;;;1.60;;
12024;SDS011;6073;53.230;10.444;2022-08-21T07:48:42;2.47;;;1.98;;
12024;SDS011;6073;53.230;10.444;2022-08-21T07:51:09;2.95;;;1.80;;
12024;SDS011;6073;53.230;10.444;2022-08-21T07:53:36;2.78;;;1.73;;
12024;SDS011;6073;53.230;10.444;2022-08-21T07:56:02;2.22;;;1.52;;
12024;SDS011;6073;53.230;10.444;2022-08-21T07:58:29;3.10;;;1.75;;
12024;SDS011;6073;53.230;10.444;2022-08-21T08:00:55;1.98;;;1.60;;
12024;SDS011;6073;53.230;10.444;2022-08-21T08:03:20;3.53;;;1.80;;
12024;SDS011;6073;53.230;10.444;2022-08-21T08:05:46;3.03;;;1.85;;
12024;SDS011;6073;53.230;10.444;2022-08-21T08:08:12;2.85;;;1.77;;
12024;SDS011;6073;53.230;10.444;2022-08-21T08:10:37;4.00;;;2.10;;
12024;SDS011;6073;53.230;10.444;2022-08-21T08:13:04;3.17;;;1.85;;
12024;SDS011;6073;53.230;10.444;2022-08-21T08:15:29;4.43;;;1.63;;
12024;SDS011;6073;53.230;10.444;2022-08-21T08:17:55;2.35;;;1.60;;
12024;SDS011;6073;53.230;10.444;2022-08-21T08:20:22;2.88;;;1.90;;
12024;SDS011;6073;53.230;10.444;2022-08-21T08:22:51;3.15;;;2.08;;
12024;SDS011;6073;53.230;10.444;2022-08-21T08:25:17;3.17;;;1.90;;
12024;SDS011;6073;53.230;10.444;2022-08-21T08:27:44;3.38;;;2.13;;
12024;SDS011;6073;53.230;10.444;2022-08-21T08:30:11;5.00;;;2.00;;
12024;SDS011;6073;53.230;10.444;2022-08-21T08:32:39;3.00;;;2.03;;
12024;SDS011;6073;53.230;10.444;2022-08-21T08:35:05;3.15;;;1.83;;
12024;SDS011;6073;53.230;10.444;2022-08-21T08:37:32;5.25;;;2.40;;
12024;SDS011;6073;53.230;10.444;2022-08-21T08:39:58;4.63;;;1.92;;
12024;SDS011;6073;53.230;10.444;2022-08-21T08:42:25;2.80;;;1.98;;
12024;SDS011;6073;53.230;10.444;2022-08-21T08:45:00;4.82;;;2.33;;
12024;SDS011;6073;53.230;10.444;2022-08-21T08:47:40;3.13;;;2.40;;
12024;SDS011;6073;53.230;10.444;2022-08-21T08:50:27;4.18;;;2.03;;
12024;SDS011;6073;53.230;10.444;2022-08-21T08:53:05;5.85;;;2.17;;
12024;SDS011;6073;53.230;10.444;2022-08-21T08:55:35;3.47;;;1.98;;
12024;SDS011;6073;53.230;10.444;2022-08-21T08:58:05;6.10;;;1.98;;
12024;SDS011;6073;53.230;10.444;2022-08-21T09:00:31;3.55;;;1.80;;
12024;SDS011;6073;53.230;10.444;2022-08-21T09:02:59;5.75;;;2.30;;
12024;SDS011;6073;53.230;10.444;2022-08-21T09:05:27;4.22;;;2.05;;
12024;SDS011;6073;53.230;10.444;2022-08-21T09:13:50;4.32;;;1.80;;
12024;SDS011;6073;53.230;10.444;2022-08-21T09:16:41;2.80;;;1.90;;
12024;SDS011;6073;53.230;10.444;2022-08-21T09:19:28;4.15;;;2.00;;
12024;SDS011;6073;53.230;10.444;2022-08-21T09:22:08;4.47;;;2.35;;
12024;SDS011;6073;53.230;10.444;2022-08-21T09:27:36;4.38;;;2.20;;
12024;SDS011;6073;53.230;10.444;2022-08-21T09:30:02;3.00;;;2.13;;
12024;SDS011;6073;53.230;10.444;2022-08-21T09:32:31;3.92;;;1.90;;
12024;SDS011;6073;53.230;10.444;2022-08-21T09:35:00;7.32;;;2.38;;
12024;SDS011;6073;53.230;10.444;2022-08-21T09:37:32;6.82;;;2.33;;
12024;SDS011;6073;53.230;10.444;2022-08-21T09:39:59;5.82;;;2.00;;
12024;SDS011;6073;53.230;10.444;2022-08-21T09:42:28;4.10;;;2.05;;
12024;SDS011;6073;53.230;10.444;2022-08-21T09:45:14;3.95;;;2.15;;
12024;SDS011;6073;53.230;10.444;2022-08-21T09:47:43;5.18;;;2.28;;
12024;SDS011;6073;53.230;10.444;2022-08-21T09:50:31;2.85;;;1.70;;
12024;SDS011;6073;53.230;10.444;2022-08-21T09:52:57;3.65;;;2.33;;
12024;SDS011;6073;53.230;10.444;2022-08-21T09:55:39;4.20;;;1.98;;
12024;SDS011;6073;53.230;10.444;2022-08-21T09:58:43;5.50;;;2.30;;
12024;SDS011;6073;53.230;10.444;2022-08-21T10:01:13;3.92;;;2.33;;
12024;SDS011;6073;53.230;10.444;2022-08-21T10:03:47;3.67;;;2.10;;
12024;SDS011;6073;53.230;10.444;2022-08-21T10:06:23;4.00;;;2.35;;
12024;SDS011;6073;53.230;10.444;2022-08-21T10:09:02;4.18;;;2.13;;
12024;SDS011;6073;53.230;10.444;2022-08-21T10:11:30;7.13;;;2.30;;
12024;SDS011;6073;53.230;10.444;2022-08-21T10:19:11;7.18;;;2.42;;
12024;SDS011;6073;53.230;10.444;2022-08-21T10:24:10;6.53;;;2.53;;
12024;SDS011;6073;53.230;10.444;2022-08-21T10:27:07;6.20;;;2.75;;
12024;SDS011;6073;53.230;10.444;2022-08-21T10:29:49;9.45;;;2.72;;
12024;SDS011;6073;53.230;10.444;2022-08-21T10:34:48;5.97;;;2.55;;
12024;SDS011;6073;53.230;10.444;2022-08-21T10:40:29;6.38;;;2.55;;
12024;SDS011;6073;53.230;10.444;2022-08-21T10:48:25;4.78;;;2.45;;
12024;SDS011;6073;53.230;10.444;2022-08-21T10:56:19;3.10;;;2.25;;
12024;SDS011;6073;53.230;10.444;2022-08-21T10:58:59;4.10;;;2.40;;
12024;SDS011;6073;53.230;10.444;2022-08-21T11:01:46;5.60;;;2.42;;
12024;SDS011;6073;53.230;10.444;2022-08-21T11:04:24;5.00;;;2.40;;
12024;SDS011;6073;53.230;10.444;2022-08-21T11:06:56;4.78;;;2.45;;
12024;SDS011;6073;53.230;10.444;2022-08-21T11:09:26;4.05;;;2.28;;
12024;SDS011;6073;53.230;10.444;2022-08-21T11:12:02;5.45;;;2.63;;
12024;SDS011;6073;53.230;10.444;2022-08-21T11:14:47;6.47;;;2.55;;
12024;SDS011;6073;53.230;10.444;2022-08-21T11:17:37;5.13;;;2.45;;
12024;SDS011;6073;53.230;10.444;2022-08-21T11:20:24;5.80;;;2.45;;
12024;SDS011;6073;53.230;10.444;2022-08-21T11:23:11;5.30;;;2.42;;
12024;SDS011;6073;53.230;10.444;2022-08-21T11:25:49;4.40;;;2.00;;
12024;SDS011;6073;53.230;10.444;2022-08-21T11:28:30;5.00;;;2.10;;
12024;SDS011;6073;53.230;10.444;2022-08-21T11:39:12;4.95;;;2.72;;
12024;SDS011;6073;53.230;10.444;2022-08-21T11:47:51;5.15;;;2.40;;
12024;SDS011;6073;53.230;10.444;2022-08-21T11:50:32;4.72;;;2.35;;
12024;SDS011;6073;53.230;10.444;2022-08-21T11:53:09;3.60;;;2.15;;
12024;SDS011;6073;53.230;10.444;2022-08-21T11:56:19;4.93;;;2.13;;
12024;SDS011;6073;53.230;10.444;2022-08-21T11:58:51;4.05;;;1.85;;
12024;SDS011;6073;53.230;10.444;2022-08-21T12:01:25;4.03;;;2.13;;
12024;SDS011;6073;53.230;10.444;2022-08-21T12:04:01;3.80;;;2.00;;
12024;SDS011;6073;53.230;10.444;2022-08-21T12:06:32;3.83;;;2.00;;
12024;SDS011;6073;53.230;10.444;2022-08-21T12:09:07;4.72;;;2.00;;
12024;SDS011;6073;53.230;10.444;2022-08-21T12:17:22;4.55;;;2.15;;
12024;SDS011;6073;53.230;10.444;2022-08-21T12:19:58;5.22;;;2.17;;
12024;SDS011;6073;53.230;10.444;2022-08-21T12:22:35;3.08;;;1.92;;
12024;SDS011;6073;53.230;10.444;2022-08-21T12:25:05;4.55;;;1.70;;
12024;SDS011;6073;53.230;10.444;2022-08-21T12:32:56;3.05;;;1.58;;
12024;SDS011;6073;53.230;10.444;2022-08-21T12:35:25;2.88;;;2.10;;
12024;SDS011;6073;53.230;10.444;2022-08-21T12:43:35;2.97;;;1.50;;
12024;SDS011;6073;53.230;10.444;2022-08-21T12:46:05;3.22;;;1.85;;
12024;SDS011;6073;53.230;10.444;2022-08-21T12:54:28;3.85;;;2.08;;
12024;SDS011;6073;53.230;10.444;2022-08-21T12:57:03;2.72;;;2.20;;
12024;SDS011;6073;53.230;10.444;2022-08-21T12:59:31;3.75;;;2.05;;
12024;SDS011;6073;53.230;10.444;2022-08-21T13:01:58;2.90;;;1.60;;
12024;SDS011;6073;53.230;10.444;2022-08-21T13:07:00;2.05;;;1.60;;
12024;SDS011;6073;53.230;10.444;2022-08-21T13:09:30;2.30;;;1.52;;
12024;SDS011;6073;53.230;10.444;2022-08-21T13:11:56;3.55;;;1.75;;
12024;SDS011;6073;53.230;10.444;2022-08-21T13:17:09;3.97;;;2.00;;
12024;SDS011;6073;53.230;10.444;2022-08-21T13:19:36;2.75;;;1.70;;
12024;SDS011;6073;53.230;10.444;2022-08-21T13:22:02;4.00;;;2.10;;
12024;SDS011;6073;53.230;10.444;2022-08-21T13:24:30;3.53;;;1.92;;
12024;SDS011;6073;53.230;10.444;2022-08-21T13:26:59;2.97;;;1.80;;
12024;SDS011;6073;53.230;10.444;2022-08-21T13:29:29;2.88;;;1.60;;
12024;SDS011;6073;53.230;10.444;2022-08-21T13:32:00;3.28;;;1.83;;
12024;SDS011;6073;53.230;10.444;2022-08-21T13:34:32;2.17;;;1.38;;
12024;SDS011;6073;53.230;10.444;2022-08-21T13:37:00;2.67;;;1.50;;
12024;SDS011;6073;53.230;10.444;2022-08-21T13:39:32;3.53;;;1.58;;
12024;SDS011;6073;53.230;10.444;2022-08-21T13:41:58;2.80;;;1.55;;
12024;SDS011;6073;53.230;10.444;2022-08-21T13:44:39;2.67;;;1.73;;
12024;SDS011;6073;53.230;10.444;2022-08-21T13:47:11;3.13;;;1.70;;
12024;SDS011;6073;53.230;10.444;2022-08-21T13:49:48;3.17;;;1.45;;
12024;SDS011;6073;53.230;10.444;2022-08-21T13:52:20;2.30;;;1.48;;
12024;SDS011;6073;53.230;10.444;2022-08-21T13:55:06;2.55;;;1.40;;
12024;SDS011;6073;53.230;10.444;2022-08-21T13:57:34;2.63;;;1.60;;
12024;SDS011;6073;53.230;10.444;2022-08-21T14:02:50;3.33;;;1.73;;
12024;SDS011;6073;53.230;10.444;2022-08-21T14:07:50;4.68;;;1.67;;
12024;SDS011;6073;53.230;10.444;2022-08-21T14:10:21;4.00;;;1.73;;
12024;SDS011;6073;53.230;10.444;2022-08-21T14:12:54;3.92;;;1.70;;
12024;SDS011;6073;53.230;10.444;2022-08-21T14:15:24;2.40;;;1.60;;
12024;SDS011;6073;53.230;10.444;2022-08-21T14:17:53;2.47;;;1.77;;
12024;SDS011;6073;53.230;10.444;2022-08-21T14:20:31;3.38;;;1.63;;
12024;SDS011;6073;53.230;10.444;2022-08-21T14:23:00;2.47;;;1.58;;
12024;SDS011;6073;53.230;10.444;2022-08-21T14:25:31;3.13;;;1.73;;
12024;SDS011;6073;53.230;10.444;2022-08-21T14:30:46;3.42;;;1.77;;
12024;SDS011;6073;53.230;10.444;2022-08-21T14:33:13;3.38;;;1.70;;
12024;SDS011;6073;53.230;10.444;2022-08-21T14:35:45;3.05;;;1.65;;
12024;SDS011;6073;53.230;10.444;2022-08-21T14:38:12;4.28;;;1.90;;
12024;SDS011;6073;53.230;10.444;2022-08-21T14:40:38;3.33;;;1.90;;
12024;SDS011;6073;53.230;10.444;2022-08-21T14:43:04;3.55;;;1.73;;
12024;SDS011;6073;53.230;10.444;2022-08-21T14:45:30;3.15;;;1.70;;
12024;SDS011;6073;53.230;10.444;2022-08-21T14:47:56;3.47;;;1.90;;
12024;SDS011;6073;53.230;10.444;2022-08-21T14:50:23;2.30;;;1.63;;
12024;SDS011;6073;53.230;10.444;2022-08-21T14:52:48;2.80;;;1.60;;
12024;SDS011;6073;53.230;10.444;2022-08-21T14:55:15;2.60;;;1.70;;
12024;SDS011;6073;53.230;10.444;2022-08-21T14:57:47;2.53;;;1.60;;
12024;SDS011;6073;53.230;10.444;2022-08-21T15:00:15;2.83;;;1.70;;
12024;SDS011;6073;53.230;10.444;2022-08-21T15:02:46;3.63;;;1.85;;
12024;SDS011;6073;53.230;10.444;2022-08-21T15:05:12;3.90;;;2.08;;
12024;SDS011;6073;53.230;10.444;2022-08-21T15:07:38;6.65;;;2.28;;
12024;SDS011;6073;53.230;10.444;2022-08-21T15:10:04;3.00;;;1.60;;
12024;SDS011;6073;53.230;10.444;2022-08-21T15:12:30;2.97;;;1.70;;
12024;SDS011;6073;53.230;10.444;2022-08-21T15:14:56;2.78;;;1.60;;
12024;SDS011;6073;53.230;10.444;2022-08-21T15:17:21;3.67;;;1.63;;
12024;SDS011;6073;53.230;10.444;2022-08-21T15:19:47;4.50;;;2.20;;
12024;SDS011;6073;53.230;10.444;2022-08-21T15:22:13;1.70;;;1.60;;
12024;SDS011;6073;53.230;10.444;2022-08-21T15:24:38;1.65;;;1.55;;
12024;SDS011;6073;53.230;10.444;2022-08-21T15:27:04;2.53;;;1.65;;
12024;SDS011;6073;53.230;10.444;2022-08-21T15:29:32;3.45;;;1.60;;
12024;SDS011;6073;53.230;10.444;2022-08-21T15:31:59;3.60;;;1.70;;
12024;SDS011;6073;53.230;10.444;2022-08-21T15:34:27;2.47;;;1.90;;
12024;SDS011;6073;53.230;10.444;2022-08-21T15:36:55;3.42;;;1.75;;
12024;SDS011;6073;53.230;10.444;2022-08-21T15:39:21;3.85;;;1.55;;
12024;SDS011;6073;53.230;10.444;2022-08-21T15:41:47;2.33;;;1.60;;
12024;SDS011;6073;53.230;10.444;2022-08-21T15:44:13;2.83;;;1.83;;
12024;SDS011;6073;53.230;10.444;2022-08-21T15:46:39;3.40;;;2.00;;
12024;SDS011;6073;53.230;10.444;2022-08-21T15:49:05;5.43;;;1.90;;
12024;SDS011;6073;53.230;10.444;2022-08-21T15:51:32;3.15;;;1.75;;
12024;SDS011;6073;53.230;10.444;2022-08-21T15:53:57;3.20;;;1.50;;
12024;SDS011;6073;53.230;10.444;2022-08-21T15:56:24;3.55;;;1.58;;
12024;SDS011;6073;53.230;10.444;2022-08-21T15:58:53;2.97;;;1.70;;
12024;SDS011;6073;53.230;10.444;2022-08-21T16:01:24;3.80;;;1.73;;
12024;SDS011;6073;53.230;10.444;2022-08-21T16:03:50;2.75;;;1.73;;
12024;SDS011;6073;53.230;10.444;2022-08-21T16:06:18;2.22;;;1.70;;
12024;SDS011;6073;53.230;10.444;2022-08-21T16:08:44;3.83;;;1.85;;
12024;SDS011;6073;53.230;10.444;2022-08-21T16:11:12;4.68;;;1.58;;
12024;SDS011;6073;53.230;10.444;2022-08-21T16:13:40;4.70;;;1.67;;
12024;SDS011;6073;53.230;10.444;2022-08-21T16:16:08;3.55;;;2.10;;
12024;SDS011;6073;53.230;10.444;2022-08-21T16:18:37;4.53;;;2.28;;
12024;SDS011;6073;53.230;10.444;2022-08-21T16:21:03;2.53;;;1.42;;
12024;SDS011;6073;53.230;10.444;2022-08-21T16:23:29;2.63;;;1.88;;
12024;SDS011;6073;53.230;10.444;2022-08-21T16:25:57;2.47;;;1.67;;